createdAt,value
2018-05-23T00:01:42.562Z,16.50
2018-05-23T00:04:10.120Z,16.60
2018-05-23T00:06:37.720Z,16.50
2018-05-23T00:09:06.076Z,16.40
2018-05-23T00:11:33.691Z,16.40
2018-05-23T00:14:01.296Z,16.40
2018-05-23T00:16:28.832Z,16.40
2018-05-23T00:18:56.439Z,16.40
2018-05-23T00:21:24.006Z,16.40
2018-05-23T00:23:51.590Z,16.50
2018-05-23T00:26:19.166Z,16.40
2018-05-23T00:28:46.761Z,16.50
2018-05-23T00:31:14.356Z,16.50
2018-05-23T00:33:41.927Z,16.60
2018-05-23T00:36:09.490Z,16.60
2018-05-23T00:38:37.122Z,16.60
2018-05-23T00:41:04.706Z,16.60
2018-05-23T00:43:32.313Z,16.60
2018-05-23T00:45:59.929Z,16.60
2018-05-23T00:48:28.289Z,16.60
2018-05-23T00:50:55.880Z,16.60
2018-05-23T00:53:24.279Z,16.40
2018-05-23T00:55:52.636Z,16.30
2018-05-23T00:58:20.197Z,16.30
2018-05-23T01:00:47.752Z,16.20
2018-05-23T01:03:15.339Z,16.20
2018-05-23T01:05:42.880Z,16.10
2018-05-23T01:08:10.441Z,16.20
2018-05-23T01:10:37.990Z,16.30
2018-05-23T01:13:05.581Z,16.20
2018-05-23T01:15:33.917Z,16.40
2018-05-23T01:18:01.491Z,16.40
2018-05-23T01:20:29.046Z,16.40
2018-05-23T01:22:56.637Z,16.40
2018-05-23T01:25:24.219Z,16.40
2018-05-23T01:27:51.865Z,16.30
2018-05-23T01:30:19.480Z,16.20
2018-05-23T01:32:47.125Z,16.20
2018-05-23T01:35:14.681Z,16.20
2018-05-23T01:37:42.301Z,16.00
2018-05-23T01:40:09.891Z,16.00
2018-05-23T01:42:38.206Z,16.10
2018-05-23T01:45:05.742Z,16.00
2018-05-23T01:47:33.278Z,16.20
2018-05-23T01:50:00.853Z,16.20
2018-05-23T01:52:28.429Z,16.10
2018-05-23T01:54:56.117Z,16.00
2018-05-23T01:57:23.700Z,15.80
2018-05-23T01:59:52.057Z,15.70
2018-05-23T02:02:19.910Z,15.70
2018-05-23T02:04:47.534Z,15.70
2018-05-23T02:07:15.091Z,15.70
2018-05-23T02:09:42.757Z,15.70
2018-05-23T02:12:10.398Z,15.70
2018-05-23T02:14:38.029Z,15.80
2018-05-23T02:17:05.656Z,15.80
2018-05-23T02:19:33.259Z,15.80
2018-05-23T02:22:00.819Z,15.80
2018-05-23T02:24:28.451Z,15.70
2018-05-23T02:26:56.807Z,15.80
2018-05-23T02:29:24.381Z,15.70
2018-05-23T02:31:51.917Z,15.70
2018-05-23T02:34:19.481Z,15.70
2018-05-23T02:36:47.026Z,15.70
2018-05-23T02:39:15.385Z,15.70
2018-05-23T02:41:43.010Z,15.70
2018-05-23T02:44:10.654Z,15.60
2018-05-23T02:46:38.220Z,15.70
2018-05-23T02:49:05.846Z,15.50
2018-05-23T02:51:33.384Z,15.40
2018-05-23T02:54:01.781Z,15.30
2018-05-23T02:56:30.115Z,15.30
2018-05-23T02:58:57.708Z,15.20
2018-05-23T03:01:25.303Z,15.30
2018-05-23T03:03:52.867Z,15.20
2018-05-23T03:06:20.434Z,15.20
2018-05-23T03:08:48.577Z,15.30
2018-05-23T03:11:16.132Z,15.30
2018-05-23T03:13:43.721Z,15.20
2018-05-23T03:16:20.265Z,15.20
2018-05-23T03:18:49.875Z,15.10
2018-05-23T03:21:17.944Z,15.10
2018-05-23T03:23:45.913Z,15.10
2018-05-23T03:26:15.937Z,15.10
2018-05-23T03:28:44.191Z,15.20
2018-05-23T03:31:11.967Z,15.10
2018-05-23T03:33:40.053Z,15.20
2018-05-23T03:36:09.346Z,15.30
2018-05-23T03:38:37.860Z,15.30
2018-05-23T03:41:05.796Z,15.30
2018-05-23T03:43:33.478Z,15.40
2018-05-23T03:46:08.053Z,15.40
2018-05-23T03:48:35.728Z,15.40
2018-05-23T03:51:04.310Z,15.50
2018-05-23T03:53:33.229Z,15.60
2018-05-23T03:56:00.880Z,15.60
2018-05-23T03:58:28.446Z,15.60
2018-05-23T04:01:07.985Z,15.70
2018-05-23T04:03:47.465Z,15.70
2018-05-23T04:09:16.386Z,15.60
2018-05-23T04:11:44.297Z,15.60
2018-05-23T04:14:12.644Z,15.70
2018-05-23T04:16:40.539Z,15.70
2018-05-23T04:19:08.212Z,15.70
2018-05-23T04:21:35.972Z,15.70
2018-05-23T04:24:03.563Z,15.70
2018-05-23T04:26:31.405Z,15.70
2018-05-23T04:28:58.989Z,15.80
2018-05-23T04:31:26.828Z,15.90
2018-05-23T04:33:54.683Z,16.00
2018-05-23T04:36:23.044Z,16.00
2018-05-23T04:38:50.680Z,16.00
2018-05-23T04:41:18.393Z,16.10
2018-05-23T04:43:46.112Z,16.20
2018-05-23T04:46:13.684Z,16.30
2018-05-23T04:48:42.202Z,16.10
2018-05-23T04:51:10.034Z,16.10
2018-05-23T04:53:38.005Z,16.00
2018-05-23T04:56:05.764Z,16.00
2018-05-23T04:58:33.472Z,16.00
2018-05-23T05:01:01.097Z,16.10
2018-05-23T05:03:29.673Z,16.10
2018-05-23T05:05:57.279Z,16.20
2018-05-23T05:08:24.851Z,16.20
2018-05-23T05:10:52.416Z,16.20
2018-05-23T05:13:19.966Z,16.40
2018-05-23T05:15:47.666Z,16.40
2018-05-23T05:18:15.362Z,16.40
2018-05-23T05:20:42.892Z,16.40
2018-05-23T05:23:10.662Z,16.60
2018-05-23T05:25:38.346Z,16.50
2018-05-23T05:28:05.877Z,16.60
2018-05-23T05:30:33.397Z,16.80
2018-05-23T05:33:01.051Z,16.80
2018-05-23T05:35:28.797Z,16.90
2018-05-23T05:37:56.443Z,17.00
2018-05-23T05:40:24.088Z,16.90
2018-05-23T05:42:51.892Z,17.10
2018-05-23T05:45:19.609Z,17.10
2018-05-23T05:47:47.365Z,17.30
2018-05-23T05:50:14.947Z,17.30
2018-05-23T05:52:42.600Z,17.30
2018-05-23T05:55:10.145Z,17.30
2018-05-23T05:57:37.801Z,17.20
2018-05-23T06:00:05.519Z,17.20
2018-05-23T06:02:33.097Z,17.30
2018-05-23T06:05:00.662Z,17.30
2018-05-23T06:07:28.605Z,17.30
2018-05-23T06:09:56.229Z,17.30
2018-05-23T06:12:23.796Z,17.10
2018-05-23T06:14:51.413Z,17.10
2018-05-23T06:17:19.742Z,17.30
2018-05-23T06:19:47.422Z,17.30
2018-05-23T06:22:15.049Z,17.50
2018-05-23T06:24:42.572Z,17.60
2018-05-23T06:27:10.208Z,17.90
2018-05-23T06:29:37.778Z,17.90
2018-05-23T06:32:05.308Z,18.20
2018-05-23T06:34:33.118Z,18.20
2018-05-23T06:37:01.549Z,18.40
2018-05-23T06:39:29.083Z,18.40
2018-05-23T06:41:57.418Z,18.50
2018-05-23T06:44:25.227Z,18.40
2018-05-23T06:46:53.187Z,18.70
2018-05-23T06:49:20.884Z,19.00
2018-05-23T06:51:49.723Z,19.30
2018-05-23T06:54:17.458Z,19.30
2018-05-23T06:56:45.131Z,19.30
2018-05-23T06:59:12.731Z,19.20
2018-05-23T07:01:41.061Z,19.40
2018-05-23T07:04:08.915Z,19.40
2018-05-23T07:06:36.492Z,19.70
2018-05-23T07:09:04.166Z,19.50
2018-05-23T07:11:31.842Z,19.40
2018-05-23T07:13:59.487Z,19.90
2018-05-23T07:16:27.271Z,19.90
2018-05-23T07:18:55.681Z,20.40
2018-05-23T07:21:23.203Z,20.40
2018-05-23T07:23:50.895Z,20.90
2018-05-23T07:26:18.502Z,21.00
2018-05-23T07:28:46.056Z,21.10
2018-05-23T07:31:14.354Z,21.70
2018-05-23T07:33:42.789Z,21.60
2018-05-23T07:36:10.326Z,21.60
2018-05-23T07:38:38.079Z,21.90
2018-05-23T07:41:05.612Z,22.60
2018-05-23T07:43:33.243Z,22.80
2018-05-23T07:46:01.676Z,23.60
2018-05-23T07:48:29.237Z,23.60
2018-05-23T07:50:56.866Z,23.70
2018-05-23T07:53:24.437Z,23.70
2018-05-23T07:55:52.758Z,24.00
2018-05-23T07:58:20.453Z,24.00
2018-05-23T08:00:48.102Z,24.30
2018-05-23T08:03:15.646Z,24.00
2018-05-23T08:05:43.988Z,24.60
2018-05-23T08:08:11.633Z,24.60
2018-05-23T08:10:39.289Z,25.50
2018-05-23T08:13:07.595Z,26.00
2018-05-23T08:15:35.944Z,26.90
2018-05-23T08:18:03.480Z,26.90
2018-05-23T08:20:31.091Z,26.50
2018-05-23T08:22:58.636Z,27.20
2018-05-23T08:25:26.202Z,26.90
2018-05-23T08:27:53.827Z,26.70
2018-05-23T08:30:21.427Z,28.00
2018-05-23T08:32:49.045Z,28.00
2018-05-23T08:35:16.615Z,26.80
2018-05-23T08:37:44.143Z,27.10
2018-05-23T08:40:11.774Z,26.60
2018-05-23T08:42:39.430Z,28.30
2018-05-23T08:45:07.055Z,28.50
2018-05-23T08:47:35.461Z,28.30
2018-05-23T08:50:03.075Z,28.30
2018-05-23T08:52:30.651Z,28.30
2018-05-23T08:54:58.184Z,29.80
2018-05-23T08:57:25.812Z,29.80
2018-05-23T08:59:53.454Z,31.40
2018-05-23T09:02:20.987Z,32.10
2018-05-23T09:04:49.327Z,31.20
2018-05-23T09:07:17.068Z,31.20
2018-05-23T09:09:44.728Z,29.20
2018-05-23T09:12:13.266Z,29.20
2018-05-23T09:14:40.828Z,29.20
2018-05-23T09:17:08.359Z,29.10
2018-05-23T09:19:36.739Z,29.10
2018-05-23T09:22:05.092Z,28.80
2018-05-23T09:24:32.652Z,28.80
2018-05-23T09:27:00.237Z,31.20
2018-05-23T09:29:27.979Z,31.10
2018-05-23T09:31:55.518Z,29.90
2018-05-23T09:34:23.066Z,30.20
2018-05-23T09:36:50.621Z,28.90
2018-05-23T09:39:18.237Z,27.90
2018-05-23T09:41:46.474Z,27.20
2018-05-23T09:44:14.022Z,27.20
2018-05-23T09:46:42.412Z,26.80
2018-05-23T09:49:09.953Z,26.80
2018-05-23T09:51:37.665Z,27.40
2018-05-23T09:54:05.297Z,27.90
2018-05-23T09:56:33.079Z,27.40
2018-05-23T09:59:00.668Z,27.00
2018-05-23T10:01:29.156Z,28.40
2018-05-23T10:03:56.665Z,28.40
2018-05-23T10:06:24.378Z,28.40
2018-05-23T10:08:51.890Z,29.20
2018-05-23T10:11:20.202Z,29.20
2018-05-23T10:13:47.794Z,29.10
2018-05-23T10:16:15.316Z,29.30
2018-05-23T10:18:43.618Z,28.50
2018-05-23T10:21:11.237Z,28.50
2018-05-23T10:23:38.754Z,28.40
2018-05-23T10:26:07.041Z,28.30
2018-05-23T10:28:35.348Z,28.30
2018-05-23T10:31:02.924Z,28.30
2018-05-23T10:33:30.530Z,28.30
2018-05-23T10:35:58.081Z,29.20
2018-05-23T10:38:25.640Z,28.20
2018-05-23T10:40:53.164Z,28.30
2018-05-23T10:43:20.684Z,28.40
2018-05-23T10:45:48.221Z,28.50
2018-05-23T10:48:15.753Z,28.00
2018-05-23T10:50:43.324Z,28.40
2018-05-23T10:53:10.838Z,28.30
2018-05-23T10:55:38.432Z,27.70
2018-05-23T10:58:06.706Z,27.50
2018-05-23T11:00:34.235Z,27.50
2018-05-23T11:03:01.865Z,28.20
2018-05-23T11:05:29.909Z,28.30
2018-05-23T11:07:57.428Z,27.50
2018-05-23T11:10:25.725Z,26.90
2018-05-23T11:12:53.262Z,26.80
2018-05-23T11:15:20.973Z,27.20
2018-05-23T11:17:48.438Z,27.40
2018-05-23T11:20:15.980Z,27.40
2018-05-23T11:22:43.791Z,27.30
2018-05-23T11:25:11.353Z,26.70
2018-05-23T11:27:39.647Z,26.80
2018-05-23T11:30:07.663Z,26.80
2018-05-23T11:32:35.306Z,26.50
2018-05-23T11:35:02.804Z,26.90
2018-05-23T11:37:30.451Z,26.50
2018-05-23T11:39:57.980Z,25.80
2018-05-23T11:42:25.563Z,26.10
2018-05-23T11:44:53.117Z,25.80
2018-05-23T11:47:20.640Z,25.10
2018-05-23T11:49:48.166Z,24.90
2018-05-23T11:52:15.777Z,24.90
2018-05-23T11:54:43.308Z,24.70
2018-05-23T11:57:10.927Z,24.10
2018-05-23T11:59:38.448Z,24.40
2018-05-23T12:02:06.041Z,24.40
2018-05-23T12:04:33.539Z,24.30
2018-05-23T12:07:01.237Z,24.30
2018-05-23T12:09:28.957Z,24.60
2018-05-23T12:11:56.727Z,24.60
2018-05-23T12:14:24.320Z,24.40
2018-05-23T12:16:51.952Z,24.90
2018-05-23T12:19:19.617Z,24.50
2018-05-23T12:21:47.149Z,24.20
2018-05-23T12:24:15.441Z,24.00
2018-05-23T12:26:43.860Z,23.70
2018-05-23T12:29:11.406Z,23.70
2018-05-23T12:31:40.013Z,24.20
2018-05-23T12:34:07.590Z,24.10
2018-05-23T12:36:35.095Z,24.10
2018-05-23T12:39:02.609Z,24.20
2018-05-23T12:41:30.958Z,23.90
2018-05-23T12:43:58.497Z,23.80
2018-05-23T12:46:26.043Z,23.90
2018-05-23T12:48:54.414Z,24.90
2018-05-23T12:51:21.941Z,24.90
2018-05-23T12:53:49.612Z,24.80
2018-05-23T12:56:17.125Z,24.70
2018-05-23T12:58:44.694Z,25.10
2018-05-23T13:01:12.204Z,24.30
2018-05-23T13:03:40.549Z,24.60
2018-05-23T13:06:08.090Z,24.60
2018-05-23T13:08:35.642Z,25.30
2018-05-23T13:11:03.945Z,25.00
2018-05-23T13:13:31.464Z,25.00
2018-05-23T13:15:59.061Z,24.40
2018-05-23T13:18:27.743Z,24.80
2018-05-23T13:20:55.440Z,24.80
2018-05-23T13:23:24.330Z,24.70
2018-05-23T13:25:51.854Z,24.60
2018-05-23T13:28:19.654Z,24.80
2018-05-23T13:30:47.157Z,25.10
2018-05-23T13:33:14.772Z,25.00
2018-05-23T13:35:42.434Z,25.00
2018-05-23T13:38:09.988Z,25.50
2018-05-23T13:40:38.253Z,25.10
2018-05-23T13:43:05.880Z,25.00
2018-05-23T13:45:33.439Z,25.60
2018-05-23T13:48:01.005Z,25.90
2018-05-23T13:50:28.598Z,25.80
2018-05-23T13:52:56.477Z,26.20
2018-05-23T13:55:24.011Z,25.70
2018-05-23T13:57:52.384Z,25.00
2018-05-23T14:00:21.295Z,25.00
2018-05-23T14:02:48.870Z,25.00
2018-05-23T14:05:17.701Z,24.90
2018-05-23T14:07:45.321Z,25.20
2018-05-23T14:10:12.882Z,25.20
2018-05-23T14:12:40.621Z,25.60
2018-05-23T14:15:08.190Z,25.20
2018-05-23T14:17:35.696Z,25.50
2018-05-23T14:20:03.427Z,25.50
2018-05-23T14:22:31.769Z,25.50
2018-05-23T14:24:59.301Z,25.40
2018-05-23T14:27:27.586Z,25.90
2018-05-23T14:29:55.873Z,25.90
2018-05-23T14:32:23.559Z,25.90
2018-05-23T14:34:51.426Z,26.20
2018-05-23T14:37:19.794Z,26.20
2018-05-23T14:39:47.545Z,26.20
2018-05-23T14:42:15.213Z,26.10
2018-05-23T14:44:42.888Z,25.70
2018-05-23T14:47:10.583Z,25.30
2018-05-23T14:49:38.555Z,25.40
2018-05-23T14:52:06.860Z,25.50
2018-05-23T14:54:34.514Z,25.50
2018-05-23T14:57:02.252Z,25.50
2018-05-23T14:59:29.816Z,25.50
2018-05-23T15:01:58.117Z,25.30
2018-05-23T15:04:25.654Z,25.20
2018-05-23T15:06:53.259Z,24.80
2018-05-23T15:09:20.935Z,24.90
2018-05-23T15:11:48.609Z,25.10
2018-05-23T15:14:16.187Z,25.00
2018-05-23T15:16:43.832Z,24.70
2018-05-23T15:19:11.419Z,24.90
2018-05-23T15:21:41.048Z,25.20
2018-05-23T15:24:08.584Z,25.20
2018-05-23T15:26:36.296Z,25.20
2018-05-23T15:29:03.854Z,25.40
2018-05-23T15:31:32.742Z,25.40
2018-05-23T15:34:00.301Z,25.40
2018-05-23T15:36:27.923Z,25.60
2018-05-23T15:38:56.127Z,25.90
2018-05-23T15:41:23.840Z,25.60
2018-05-23T15:43:51.362Z,25.40
2018-05-23T15:46:18.977Z,25.60
2018-05-23T15:48:47.794Z,25.50
2018-05-23T15:51:15.402Z,25.70
2018-05-23T15:53:42.971Z,25.70
2018-05-23T15:56:10.537Z,26.00
2018-05-23T15:58:38.045Z,26.00
2018-05-23T16:01:05.576Z,25.60
2018-05-23T16:03:33.902Z,25.60
2018-05-23T16:06:01.449Z,25.60
2018-05-23T16:08:28.994Z,25.90
2018-05-23T16:10:56.560Z,25.40
2018-05-23T16:13:24.276Z,25.30
2018-05-23T16:15:51.801Z,25.20
2018-05-23T16:18:19.498Z,24.90
2018-05-23T16:20:47.785Z,24.70
2018-05-23T16:23:16.795Z,24.60
2018-05-23T16:25:45.090Z,24.60
2018-05-23T16:28:13.240Z,24.60
2018-05-23T16:30:40.862Z,24.60
2018-05-23T16:33:08.418Z,24.80
2018-05-23T16:35:36.878Z,24.60
2018-05-23T16:38:04.909Z,24.60
2018-05-23T16:40:32.517Z,24.30
2018-05-23T16:43:00.029Z,24.40
2018-05-23T16:45:28.368Z,24.30
2018-05-23T16:47:55.890Z,24.30
2018-05-23T16:50:24.279Z,24.10
2018-05-23T16:52:51.881Z,24.10
2018-05-23T16:55:19.453Z,24.20
2018-05-23T16:57:47.104Z,24.00
2018-05-23T17:00:15.462Z,24.00
2018-05-23T17:02:43.604Z,24.00
2018-05-23T17:05:11.124Z,24.10
2018-05-23T17:07:38.872Z,24.00
2018-05-23T17:10:06.430Z,23.90
2018-05-23T17:12:34.050Z,23.90
2018-05-23T17:15:01.590Z,24.00
2018-05-23T17:17:29.209Z,24.00
2018-05-23T17:19:56.745Z,23.90
2018-05-23T17:22:24.529Z,24.00
2018-05-23T17:24:52.241Z,24.00
2018-05-23T17:27:20.180Z,23.90
2018-05-23T17:29:48.562Z,24.00
2018-05-23T17:32:16.553Z,24.00
2018-05-23T17:34:44.128Z,23.90
2018-05-23T17:37:11.647Z,24.00
2018-05-23T17:39:40.056Z,23.90
2018-05-23T17:42:07.958Z,23.90
2018-05-23T17:44:35.795Z,23.80
2018-05-23T17:47:04.163Z,23.60
2018-05-23T17:49:32.038Z,23.60
2018-05-23T17:52:00.930Z,23.50
2018-05-23T17:54:28.447Z,23.40
2018-05-23T17:57:06.171Z,23.30
2018-05-23T17:59:34.732Z,23.20
2018-05-23T18:02:02.751Z,23.10
2018-05-23T18:04:40.913Z,23.10
2018-05-23T18:07:08.955Z,23.00
2018-05-23T18:09:37.247Z,22.90
2018-05-23T18:12:15.310Z,22.80
2018-05-23T18:14:42.919Z,22.70
2018-05-23T18:17:10.524Z,22.70
2018-05-23T18:19:39.213Z,22.60
2018-05-23T18:22:07.183Z,22.60
2018-05-23T18:24:36.653Z,22.50
2018-05-23T18:27:04.495Z,22.40
2018-05-23T18:29:32.461Z,22.40
2018-05-23T18:32:00.827Z,22.30
2018-05-23T18:34:38.880Z,22.30
2018-05-23T18:37:06.562Z,22.30
2018-05-23T18:39:34.217Z,22.10
2018-05-23T18:42:02.821Z,22.10
2018-05-23T18:44:31.202Z,22.00
2018-05-23T18:46:59.890Z,22.00
2018-05-23T18:49:28.663Z,21.90
2018-05-23T18:51:57.667Z,21.90
2018-05-23T18:54:25.551Z,21.80
2018-05-23T18:56:57.048Z,21.80
2018-05-23T18:59:25.601Z,21.70
2018-05-23T19:01:55.588Z,21.50
2018-05-23T19:04:24.298Z,21.40
2018-05-23T19:06:52.547Z,21.40
2018-05-23T19:09:20.246Z,21.30
2018-05-23T19:11:48.847Z,21.20
2018-05-23T19:14:16.555Z,21.20
2018-05-23T19:16:44.473Z,21.30
2018-05-23T19:19:12.385Z,21.30
2018-05-23T19:21:40.981Z,21.20
2018-05-23T19:24:08.646Z,21.10
2018-05-23T19:26:37.314Z,20.90
2018-05-23T19:29:04.909Z,20.90
2018-05-23T19:31:33.271Z,20.90
2018-05-23T19:34:01.240Z,20.90
2018-05-23T19:36:28.881Z,20.90
2018-05-23T19:38:56.428Z,21.00
2018-05-23T19:41:24.708Z,20.80
2018-05-23T19:43:52.421Z,20.80
2018-05-23T19:46:20.193Z,20.80
2018-05-23T19:48:50.134Z,20.80
2018-05-23T19:51:17.691Z,20.70
2018-05-23T19:53:45.308Z,20.70
2018-05-23T19:56:12.900Z,20.70
2018-05-23T19:58:40.441Z,20.60
2018-05-23T20:01:07.952Z,20.50
2018-05-23T20:03:35.526Z,20.70
2018-05-23T20:06:03.082Z,20.60
2018-05-23T20:08:30.637Z,20.50
2018-05-23T20:10:58.204Z,20.30
2018-05-23T20:13:25.736Z,20.40
2018-05-23T20:15:54.063Z,20.20
2018-05-23T20:18:21.605Z,20.20
2018-05-23T20:20:49.178Z,20.10
2018-05-23T20:23:16.690Z,20.20
2018-05-23T20:25:44.226Z,20.20
2018-05-23T20:28:11.800Z,20.10
2018-05-23T20:30:39.325Z,20.20
2018-05-23T20:33:06.892Z,20.20
2018-05-23T20:35:34.418Z,20.10
2018-05-23T20:38:02.100Z,20.10
2018-05-23T20:40:29.690Z,19.90
2018-05-23T20:42:57.235Z,20.10
2018-05-23T20:45:24.780Z,20.00
2018-05-23T20:47:53.059Z,19.80
2018-05-23T20:50:20.592Z,19.80
2018-05-23T20:52:48.143Z,20.00
2018-05-23T20:55:15.665Z,20.20
2018-05-23T20:57:43.177Z,20.10
2018-05-23T21:00:10.784Z,20.00
2018-05-23T21:02:38.284Z,20.10
2018-05-23T21:05:05.952Z,20.10
2018-05-23T21:07:33.458Z,20.30
2018-05-23T21:10:01.751Z,20.10
2018-05-23T21:12:29.321Z,20.00
2018-05-23T21:14:56.895Z,20.00
2018-05-23T21:17:24.421Z,20.00
2018-05-23T21:19:51.989Z,20.10
2018-05-23T21:22:19.500Z,20.10
2018-05-23T21:24:47.905Z,20.30
2018-05-23T21:27:15.543Z,20.30
2018-05-23T21:29:43.869Z,20.10
2018-05-23T21:32:11.441Z,20.10
2018-05-23T21:34:38.990Z,20.00
2018-05-23T21:37:06.557Z,20.00
2018-05-23T21:39:34.091Z,20.10
2018-05-23T21:42:01.688Z,20.00
2018-05-23T21:44:29.271Z,20.10
2018-05-23T21:46:56.782Z,20.20
2018-05-23T21:49:24.332Z,20.20
2018-05-23T21:51:52.624Z,20.10
2018-05-23T21:54:20.913Z,20.30
2018-05-23T21:56:49.180Z,20.40
2018-05-23T21:59:16.777Z,20.40
2018-05-23T22:01:45.125Z,20.20
2018-05-23T22:04:12.687Z,20.20
2018-05-23T22:06:40.217Z,20.20
2018-05-23T22:09:07.778Z,20.30
2018-05-23T22:11:36.094Z,20.20
2018-05-23T22:14:03.645Z,20.20
2018-05-23T22:16:32.005Z,20.10
2018-05-23T22:18:59.527Z,20.00
2018-05-23T22:21:27.091Z,20.00
2018-05-23T22:23:54.611Z,19.90
2018-05-23T22:26:22.244Z,19.70
2018-05-23T22:28:49.769Z,19.60
2018-05-23T22:31:17.306Z,19.50
2018-05-23T22:33:44.818Z,19.50
2018-05-23T22:36:12.409Z,19.50
2018-05-23T22:38:40.725Z,19.50
2018-05-23T22:41:08.268Z,19.50
2018-05-23T22:43:36.555Z,19.80
2018-05-23T22:46:04.133Z,19.80
2018-05-23T22:48:32.470Z,19.60
2018-05-23T22:51:00.122Z,19.60
2018-05-23T22:53:27.657Z,19.60
2018-05-23T22:55:55.981Z,19.50
2018-05-23T22:58:23.529Z,19.40
2018-05-23T23:00:51.824Z,19.30
2018-05-23T23:03:20.094Z,19.30
2018-05-23T23:05:48.436Z,19.20
2018-05-23T23:08:16.031Z,19.20
2018-05-23T23:10:43.560Z,19.20
2018-05-23T23:13:11.122Z,19.10
2018-05-23T23:15:38.699Z,19.20
2018-05-23T23:18:06.232Z,19.10
2018-05-23T23:20:33.776Z,19.20
2018-05-23T23:23:01.283Z,19.20
2018-05-23T23:25:28.809Z,19.10
2018-05-23T23:27:56.325Z,19.00
2018-05-23T23:30:23.871Z,18.90
2018-05-23T23:32:51.394Z,18.90
2018-05-23T23:35:18.961Z,18.90
2018-05-23T23:37:46.566Z,18.80
2018-05-23T23:40:14.163Z,18.80
2018-05-23T23:42:41.686Z,18.90
2018-05-23T23:45:09.237Z,18.80
2018-05-23T23:47:37.620Z,18.60
2018-05-23T23:50:05.140Z,18.50
2018-05-23T23:52:32.688Z,18.40
2018-05-23T23:55:01.032Z,18.10
2018-05-23T23:57:28.591Z,18.10
2018-05-23T23:59:56.152Z,18.10
